sensor_id;sensor_type;location;lat;lon;timestamp;temperature;humidity
33093;DHT22;19456;46.104;12.908;2024-01-07T00:01:39;10.70;99.90
33093;DHT22;19456;46.104;12.908;2024-01-07T00:04:05;10.70;99.90
33093;DHT22;19456;46.104;12.908;2024-01-07T00:06:30;10.60;99.90
33093;DHT22;19456;46.104;12.908;2024-01-07T00:08:56;10.60;99.90
33093;DHT22;19456;46.104;12.908;2024-01-07T00:11:22;10.60;99.90
33093;DHT22;19456;46.104;12.908;2024-01-07T00:13:48;10.70;99.90
33093;DHT22;19456;46.104;12.908;2024-01-07T00:16:14;10.60;99.90
33093;DHT22;19456;46.104;12.908;2024-01-07T00:18:39;10.60;99.90
33093;DHT22;19456;46.104;12.908;2024-01-07T00:21:05;10.60;99.90
33093;DHT22;19456;46.104;12.908;2024-01-07T00:23:30;10.60;99.90
33093;DHT22;19456;46.104;12.908;2024-01-07T00:25:56;10.70;99.90
33093;DHT22;19456;46.104;12.908;2024-01-07T00:28:21;10.70;99.90
33093;DHT22;19456;46.104;12.908;2024-01-07T00:30:47;10.80;99.90
33093;DHT22;19456;46.104;12.908;2024-01-07T00:33:12;10.80;99.90
33093;DHT22;19456;46.104;12.908;2024-01-07T00:35:38;10.90;99.90
33093;DHT22;19456;46.104;12.908;2024-01-07T00:38:04;10.80;99.90
33093;DHT22;19456;46.104;12.908;2024-01-07T00:40:29;10.80;99.90
33093;DHT22;19456;46.104;12.908;2024-01-07T00:42:55;10.80;99.90
33093;DHT22;19456;46.104;12.908;2024-01-07T00:45:20;10.80;99.90
33093;DHT22;19456;46.104;12.908;2024-01-07T00:47:47;10.80;99.90
33093;DHT22;19456;46.104;12.908;2024-01-07T00:50:12;10.70;99.90
33093;DHT22;19456;46.104;12.908;2024-01-07T00:52:38;10.70;99.90
33093;DHT22;19456;46.104;12.908;2024-01-07T00:55:07;10.70;99.90
33093;DHT22;19456;46.104;12.908;2024-01-07T00:57:33;10.70;99.90
33093;DHT22;19456;46.104;12.908;2024-01-07T01:00:00;10.70;99.90
33093;DHT22;19456;46.104;12.908;2024-01-07T01:02:29;10.60;99.90
33093;DHT22;19456;46.104;12.908;2024-01-07T01:04:55;10.50;99.90
33093;DHT22;19456;46.104;12.908;2024-01-07T01:07:21;10.50;99.90
33093;DHT22;19456;46.104;12.908;2024-01-07T01:09:46;10.50;99.90
33093;DHT22;19456;46.104;12.908;2024-01-07T01:12:12;10.50;99.90
33093;DHT22;19456;46.104;12.908;2024-01-07T01:14:37;10.50;99.90
33093;DHT22;19456;46.104;12.908;2024-01-07T01:17:03;10.50;99.90
33093;DHT22;19456;46.104;12.908;2024-01-07T01:19:28;10.50;99.90
33093;DHT22;19456;46.104;12.908;2024-01-07T01:21:54;10.40;99.90
33093;DHT22;19456;46.104;12.908;2024-01-07T01:24:19;10.30;99.90
33093;DHT22;19456;46.104;12.908;2024-01-07T01:26:45;10.30;99.90
33093;DHT22;19456;46.104;12.908;2024-01-07T01:29:11;10.40;99.90
33093;DHT22;19456;46.104;12.908;2024-01-07T01:31:36;10.40;99.90
33093;DHT22;19456;46.104;12.908;2024-01-07T01:34:02;10.40;99.90
33093;DHT22;19456;46.104;12.908;2024-01-07T01:36:27;10.40;99.90
33093;DHT22;19456;46.104;12.908;2024-01-07T01:38:53;10.50;99.90
33093;DHT22;19456;46.104;12.908;2024-01-07T01:41:18;10.60;99.90
33093;DHT22;19456;46.104;12.908;2024-01-07T01:43:44;10.80;99.90
33093;DHT22;19456;46.104;12.908;2024-01-07T01:46:10;10.80;99.90
33093;DHT22;19456;46.104;12.908;2024-01-07T01:48:35;11.00;99.90
33093;DHT22;19456;46.104;12.908;2024-01-07T01:51:01;11.10;99.90
33093;DHT22;19456;46.104;12.908;2024-01-07T01:53:27;11.20;99.90
33093;DHT22;19456;46.104;12.908;2024-01-07T01:55:54;11.20;99.90
33093;DHT22;19456;46.104;12.908;2024-01-07T01:58:20;11.20;99.90
33093;DHT22;19456;46.104;12.908;2024-01-07T02:00:47;11.10;99.90
33093;DHT22;19456;46.104;12.908;2024-01-07T02:03:12;11.20;99.90
33093;DHT22;19456;46.104;12.908;2024-01-07T02:05:38;11.20;99.90
33093;DHT22;19456;46.104;12.908;2024-01-07T02:08:04;11.20;99.90
33093;DHT22;19456;46.104;12.908;2024-01-07T02:10:30;11.10;99.90
33093;DHT22;19456;46.104;12.908;2024-01-07T02:13:00;11.10;99.90
33093;DHT22;19456;46.104;12.908;2024-01-07T02:15:25;11.10;99.90
33093;DHT22;19456;46.104;12.908;2024-01-07T02:17:51;11.10;99.90
33093;DHT22;19456;46.104;12.908;2024-01-07T02:20:16;11.10;99.90
33093;DHT22;19456;46.104;12.908;2024-01-07T02:22:42;11.10;99.90
33093;DHT22;19456;46.104;12.908;2024-01-07T02:25:07;11.10;99.90
33093;DHT22;19456;46.104;12.908;2024-01-07T02:27:34;11.00;99.90
33093;DHT22;19456;46.104;12.908;2024-01-07T02:29:59;11.00;99.90
33093;DHT22;19456;46.104;12.908;2024-01-07T02:32:25;11.00;99.90
33093;DHT22;19456;46.104;12.908;2024-01-07T02:34:50;11.00;99.90
33093;DHT22;19456;46.104;12.908;2024-01-07T02:37:16;10.90;99.90
33093;DHT22;19456;46.104;12.908;2024-01-07T02:39:42;10.80;99.90
33093;DHT22;19456;46.104;12.908;2024-01-07T02:42:08;10.70;99.90
33093;DHT22;19456;46.104;12.908;2024-01-07T02:44:34;10.60;99.90
33093;DHT22;19456;46.104;12.908;2024-01-07T02:46:59;10.50;99.90
33093;DHT22;19456;46.104;12.908;2024-01-07T02:49:25;10.40;99.90
33093;DHT22;19456;46.104;12.908;2024-01-07T02:51:50;10.40;99.90
33093;DHT22;19456;46.104;12.908;2024-01-07T02:54:16;10.30;99.90
33093;DHT22;19456;46.104;12.908;2024-01-07T02:56:42;10.20;99.90
33093;DHT22;19456;46.104;12.908;2024-01-07T02:59:07;10.10;99.90
33093;DHT22;19456;46.104;12.908;2024-01-07T03:01:33;10.00;99.90
33093;DHT22;19456;46.104;12.908;2024-01-07T03:04:09;10.00;99.90
33093;DHT22;19456;46.104;12.908;2024-01-07T03:06:35;10.10;99.90
33093;DHT22;19456;46.104;12.908;2024-01-07T03:09:01;10.10;99.90
33093;DHT22;19456;46.104;12.908;2024-01-07T03:11:26;10.10;99.90
33093;DHT22;19456;46.104;12.908;2024-01-07T03:13:52;10.10;99.90
33093;DHT22;19456;46.104;12.908;2024-01-07T03:16:21;10.10;99.90
33093;DHT22;19456;46.104;12.908;2024-01-07T03:18:46;10.10;99.90
33093;DHT22;19456;46.104;12.908;2024-01-07T03:21:22;10.10;99.90
33093;DHT22;19456;46.104;12.908;2024-01-07T03:23:48;10.10;99.90
33093;DHT22;19456;46.104;12.908;2024-01-07T03:26:16;10.10;99.90
33093;DHT22;19456;46.104;12.908;2024-01-07T03:28:43;10.10;99.90
33093;DHT22;19456;46.104;12.908;2024-01-07T03:31:09;10.00;99.90
33093;DHT22;19456;46.104;12.908;2024-01-07T03:33:36;9.90;99.90
33093;DHT22;19456;46.104;12.908;2024-01-07T03:36:06;9.90;99.90
33093;DHT22;19456;46.104;12.908;2024-01-07T03:38:31;9.90;99.90
33093;DHT22;19456;46.104;12.908;2024-01-07T03:40:57;9.80;99.90
33093;DHT22;19456;46.104;12.908;2024-01-07T03:43:22;9.80;99.90
33093;DHT22;19456;46.104;12.908;2024-01-07T03:45:50;9.80;99.90
33093;DHT22;19456;46.104;12.908;2024-01-07T03:48:16;9.70;99.90
33093;DHT22;19456;46.104;12.908;2024-01-07T03:50:41;9.60;99.90
33093;DHT22;19456;46.104;12.908;2024-01-07T03:53:07;9.60;99.90
33093;DHT22;19456;46.104;12.908;2024-01-07T03:55:32;9.60;99.90
33093;DHT22;19456;46.104;12.908;2024-01-07T03:57:58;9.70;99.90
33093;DHT22;19456;46.104;12.908;2024-01-07T04:00:23;9.70;99.90
33093;DHT22;19456;46.104;12.908;2024-01-07T04:02:49;9.70;99.90
33093;DHT22;19456;46.104;12.908;2024-01-07T04:05:14;9.80;99.90
33093;DHT22;19456;46.104;12.908;2024-01-07T04:07:40;9.80;99.90
33093;DHT22;19456;46.104;12.908;2024-01-07T04:10:06;9.70;99.90
33093;DHT22;19456;46.104;12.908;2024-01-07T04:12:31;9.70;99.90
33093;DHT22;19456;46.104;12.908;2024-01-07T04:14:57;9.70;99.90
33093;DHT22;19456;46.104;12.908;2024-01-07T04:17:23;9.60;99.90
33093;DHT22;19456;46.104;12.908;2024-01-07T04:19:48;9.60;99.90
33093;DHT22;19456;46.104;12.908;2024-01-07T04:22:14;9.50;99.90
33093;DHT22;19456;46.104;12.908;2024-01-07T04:24:43;9.50;99.90
33093;DHT22;19456;46.104;12.908;2024-01-07T04:27:09;9.50;99.90
33093;DHT22;19456;46.104;12.908;2024-01-07T04:29:35;9.40;99.90
33093;DHT22;19456;46.104;12.908;2024-01-07T04:32:00;9.40;99.90
33093;DHT22;19456;46.104;12.908;2024-01-07T04:34:26;9.40;99.90
33093;DHT22;19456;46.104;12.908;2024-01-07T04:36:51;9.50;99.90
33093;DHT22;19456;46.104;12.908;2024-01-07T04:39:17;9.50;99.90
33093;DHT22;19456;46.104;12.908;2024-01-07T04:41:43;9.50;99.90
33093;DHT22;19456;46.104;12.908;2024-01-07T04:44:08;9.50;99.90
33093;DHT22;19456;46.104;12.908;2024-01-07T04:46:34;9.40;99.90
33093;DHT22;19456;46.104;12.908;2024-01-07T04:49:01;9.30;99.90
33093;DHT22;19456;46.104;12.908;2024-01-07T04:51:26;9.20;99.90
33093;DHT22;19456;46.104;12.908;2024-01-07T04:53:52;9.20;99.90
33093;DHT22;19456;46.104;12.908;2024-01-07T04:56:17;9.10;99.90
33093;DHT22;19456;46.104;12.908;2024-01-07T04:58:43;9.10;99.90
33093;DHT22;19456;46.104;12.908;2024-01-07T05:01:09;9.10;99.90
33093;DHT22;19456;46.104;12.908;2024-01-07T05:03:34;9.00;99.90
33093;DHT22;19456;46.104;12.908;2024-01-07T05:06:00;9.00;99.90
33093;DHT22;19456;46.104;12.908;2024-01-07T05:08:27;9.00;99.90
33093;DHT22;19456;46.104;12.908;2024-01-07T05:10:53;9.00;99.90
33093;DHT22;19456;46.104;12.908;2024-01-07T05:13:19;9.00;99.90
33093;DHT22;19456;46.104;12.908;2024-01-07T05:15:44;9.00;99.90
33093;DHT22;19456;46.104;12.908;2024-01-07T05:18:12;9.00;99.90
33093;DHT22;19456;46.104;12.908;2024-01-07T05:20:37;9.00;99.90
33093;DHT22;19456;46.104;12.908;2024-01-07T05:23:03;9.00;99.90
33093;DHT22;19456;46.104;12.908;2024-01-07T05:25:29;9.10;99.90
33093;DHT22;19456;46.104;12.908;2024-01-07T05:27:54;9.10;99.90
33093;DHT22;19456;46.104;12.908;2024-01-07T05:30:20;9.10;99.90
33093;DHT22;19456;46.104;12.908;2024-01-07T05:32:47;9.00;99.90
33093;DHT22;19456;46.104;12.908;2024-01-07T05:35:13;9.00;99.90
33093;DHT22;19456;46.104;12.908;2024-01-07T05:37:38;9.10;99.90
33093;DHT22;19456;46.104;12.908;2024-01-07T05:40:04;9.10;99.90
33093;DHT22;19456;46.104;12.908;2024-01-07T05:42:31;9.10;99.90
33093;DHT22;19456;46.104;12.908;2024-01-07T05:44:57;9.20;99.90
33093;DHT22;19456;46.104;12.908;2024-01-07T05:47:22;9.20;99.90
33093;DHT22;19456;46.104;12.908;2024-01-07T05:49:48;9.30;99.90
33093;DHT22;19456;46.104;12.908;2024-01-07T05:52:13;9.30;99.90
33093;DHT22;19456;46.104;12.908;2024-01-07T05:54:39;9.40;99.90
33093;DHT22;19456;46.104;12.908;2024-01-07T05:57:05;9.40;99.90
33093;DHT22;19456;46.104;12.908;2024-01-07T05:59:30;9.40;99.90
33093;DHT22;19456;46.104;12.908;2024-01-07T06:01:59;9.40;99.90
33093;DHT22;19456;46.104;12.908;2024-01-07T06:04:25;9.40;99.90
33093;DHT22;19456;46.104;12.908;2024-01-07T06:06:51;9.40;99.90
33093;DHT22;19456;46.104;12.908;2024-01-07T06:09:17;9.30;99.90
33093;DHT22;19456;46.104;12.908;2024-01-07T06:11:42;9.30;99.90
33093;DHT22;19456;46.104;12.908;2024-01-07T06:14:08;9.30;99.90
33093;DHT22;19456;46.104;12.908;2024-01-07T06:16:34;9.40;99.90
33093;DHT22;19456;46.104;12.908;2024-01-07T06:18:59;9.40;99.90
33093;DHT22;19456;46.104;12.908;2024-01-07T06:21:25;9.40;99.90
33093;DHT22;19456;46.104;12.908;2024-01-07T06:23:50;9.40;99.90
33093;DHT22;19456;46.104;12.908;2024-01-07T06:26:16;9.40;99.90
33093;DHT22;19456;46.104;12.908;2024-01-07T06:28:41;9.30;99.90
33093;DHT22;19456;46.104;12.908;2024-01-07T06:31:07;9.40;99.90
33093;DHT22;19456;46.104;12.908;2024-01-07T06:33:32;9.50;99.90
33093;DHT22;19456;46.104;12.908;2024-01-07T06:35:58;9.50;99.90
33093;DHT22;19456;46.104;12.908;2024-01-07T06:38:24;9.50;99.90
33093;DHT22;19456;46.104;12.908;2024-01-07T06:40:49;9.50;99.90
33093;DHT22;19456;46.104;12.908;2024-01-07T06:43:15;9.40;99.90
33093;DHT22;19456;46.104;12.908;2024-01-07T06:45:40;9.40;99.90
33093;DHT22;19456;46.104;12.908;2024-01-07T06:48:06;9.40;99.90
33093;DHT22;19456;46.104;12.908;2024-01-07T06:50:32;9.50;99.90
33093;DHT22;19456;46.104;12.908;2024-01-07T06:52:57;9.50;99.90
33093;DHT22;19456;46.104;12.908;2024-01-07T06:55:23;9.50;99.90
33093;DHT22;19456;46.104;12.908;2024-01-07T06:57:48;9.50;99.90
33093;DHT22;19456;46.104;12.908;2024-01-07T07:00:14;9.50;99.90
33093;DHT22;19456;46.104;12.908;2024-01-07T07:02:43;9.50;99.90
33093;DHT22;19456;46.104;12.908;2024-01-07T07:05:09;9.40;99.90
33093;DHT22;19456;46.104;12.908;2024-01-07T07:07:34;9.50;99.90
33093;DHT22;19456;46.104;12.908;2024-01-07T07:10:00;9.50;99.90
33093;DHT22;19456;46.104;12.908;2024-01-07T07:12:26;9.30;99.90
33093;DHT22;19456;46.104;12.908;2024-01-07T07:14:51;9.40;99.90
33093;DHT22;19456;46.104;12.908;2024-01-07T07:17:17;9.30;99.90
33093;DHT22;19456;46.104;12.908;2024-01-07T07:19:42;9.30;99.90
33093;DHT22;19456;46.104;12.908;2024-01-07T07:22:08;9.30;99.90
33093;DHT22;19456;46.104;12.908;2024-01-07T07:24:33;9.30;99.90
33093;DHT22;19456;46.104;12.908;2024-01-07T07:26:59;9.20;99.90
33093;DHT22;19456;46.104;12.908;2024-01-07T07:29:25;9.10;99.90
33093;DHT22;19456;46.104;12.908;2024-01-07T07:31:50;9.00;99.90
33093;DHT22;19456;46.104;12.908;2024-01-07T07:34:16;8.90;99.90
33093;DHT22;19456;46.104;12.908;2024-01-07T07:36:41;9.00;99.90
33093;DHT22;19456;46.104;12.908;2024-01-07T07:39:08;9.00;99.90
33093;DHT22;19456;46.104;12.908;2024-01-07T07:41:34;9.00;99.90
33093;DHT22;19456;46.104;12.908;2024-01-07T07:44:00;9.00;99.90
33093;DHT22;19456;46.104;12.908;2024-01-07T07:46:25;9.10;99.90
33093;DHT22;19456;46.104;12.908;2024-01-07T07:48:51;9.00;99.90
33093;DHT22;19456;46.104;12.908;2024-01-07T07:51:16;9.00;99.90
33093;DHT22;19456;46.104;12.908;2024-01-07T07:53:42;9.00;99.90
33093;DHT22;19456;46.104;12.908;2024-01-07T07:56:07;9.00;99.90
33093;DHT22;19456;46.104;12.908;2024-01-07T07:58:33;9.10;99.90
33093;DHT22;19456;46.104;12.908;2024-01-07T08:00:59;9.10;99.90
33093;DHT22;19456;46.104;12.908;2024-01-07T08:03:25;9.20;99.90
33093;DHT22;19456;46.104;12.908;2024-01-07T08:05:50;9.20;99.90
33093;DHT22;19456;46.104;12.908;2024-01-07T08:08:16;9.20;99.90
33093;DHT22;19456;46.104;12.908;2024-01-07T08:10:42;9.30;99.90
33093;DHT22;19456;46.104;12.908;2024-01-07T08:13:08;9.30;99.90
33093;DHT22;19456;46.104;12.908;2024-01-07T08:15:34;9.40;99.90
33093;DHT22;19456;46.104;12.908;2024-01-07T08:18:00;9.40;99.90
33093;DHT22;19456;46.104;12.908;2024-01-07T08:20:27;9.40;99.90
33093;DHT22;19456;46.104;12.908;2024-01-07T08:22:53;9.50;99.90
33093;DHT22;19456;46.104;12.908;2024-01-07T08:25:18;9.50;99.90
33093;DHT22;19456;46.104;12.908;2024-01-07T08:27:44;9.60;99.90
33093;DHT22;19456;46.104;12.908;2024-01-07T08:30:10;9.60;99.90
33093;DHT22;19456;46.104;12.908;2024-01-07T08:32:39;9.70;99.90
33093;DHT22;19456;46.104;12.908;2024-01-07T08:35:04;9.70;99.90
33093;DHT22;19456;46.104;12.908;2024-01-07T08:37:30;9.70;99.90
33093;DHT22;19456;46.104;12.908;2024-01-07T08:39:56;9.70;99.90
33093;DHT22;19456;46.104;12.908;2024-01-07T08:42:21;9.70;99.90
33093;DHT22;19456;46.104;12.908;2024-01-07T08:44:47;9.70;99.90
33093;DHT22;19456;46.104;12.908;2024-01-07T08:47:13;9.80;99.90
33093;DHT22;19456;46.104;12.908;2024-01-07T08:49:38;9.80;99.90
33093;DHT22;19456;46.104;12.908;2024-01-07T08:52:04;9.90;99.90
33093;DHT22;19456;46.104;12.908;2024-01-07T08:54:30;9.90;99.90
33093;DHT22;19456;46.104;12.908;2024-01-07T08:56:56;9.90;99.90
33093;DHT22;19456;46.104;12.908;2024-01-07T08:59:21;10.00;99.90
33093;DHT22;19456;46.104;12.908;2024-01-07T09:01:47;10.00;99.90
33093;DHT22;19456;46.104;12.908;2024-01-07T09:04:12;10.10;99.90
33093;DHT22;19456;46.104;12.908;2024-01-07T09:06:38;10.10;99.90
33093;DHT22;19456;46.104;12.908;2024-01-07T09:09:03;10.20;99.90
33093;DHT22;19456;46.104;12.908;2024-01-07T09:11:33;10.20;99.90
33093;DHT22;19456;46.104;12.908;2024-01-07T09:13:59;10.20;99.90
33093;DHT22;19456;46.104;12.908;2024-01-07T09:16:25;10.30;99.90
33093;DHT22;19456;46.104;12.908;2024-01-07T09:18:50;10.40;99.90
33093;DHT22;19456;46.104;12.908;2024-01-07T09:21:16;10.40;99.90
33093;DHT22;19456;46.104;12.908;2024-01-07T09:23:43;10.50;99.90
33093;DHT22;19456;46.104;12.908;2024-01-07T09:26:08;10.50;99.90
33093;DHT22;19456;46.104;12.908;2024-01-07T09:28:34;10.50;99.90
33093;DHT22;19456;46.104;12.908;2024-01-07T09:31:00;10.50;99.90
33093;DHT22;19456;46.104;12.908;2024-01-07T09:33:25;10.50;99.90
33093;DHT22;19456;46.104;12.908;2024-01-07T09:35:51;10.60;99.90
33093;DHT22;19456;46.104;12.908;2024-01-07T09:38:16;10.60;99.90
33093;DHT22;19456;46.104;12.908;2024-01-07T09:40:42;10.60;99.90
33093;DHT22;19456;46.104;12.908;2024-01-07T09:43:08;10.70;99.90
33093;DHT22;19456;46.104;12.908;2024-01-07T09:45:36;10.70;99.90
33093;DHT22;19456;46.104;12.908;2024-01-07T09:48:02;10.70;99.90
33093;DHT22;19456;46.104;12.908;2024-01-07T09:50:27;10.70;99.90
33093;DHT22;19456;46.104;12.908;2024-01-07T09:52:53;10.80;99.90
33093;DHT22;19456;46.104;12.908;2024-01-07T09:55:26;10.80;99.90
33093;DHT22;19456;46.104;12.908;2024-01-07T09:57:55;10.80;99.90
33093;DHT22;19456;46.104;12.908;2024-01-07T10:00:20;10.90;99.90
33093;DHT22;19456;46.104;12.908;2024-01-07T10:02:46;10.90;99.90
33093;DHT22;19456;46.104;12.908;2024-01-07T10:05:12;11.00;99.90
33093;DHT22;19456;46.104;12.908;2024-01-07T10:07:37;11.00;99.90
33093;DHT22;19456;46.104;12.908;2024-01-07T10:12:37;11.00;99.90
33093;DHT22;19456;46.104;12.908;2024-01-07T10:15:03;11.00;99.90
33093;DHT22;19456;46.104;12.908;2024-01-07T10:17:29;11.10;99.90
33093;DHT22;19456;46.104;12.908;2024-01-07T10:19:54;11.00;99.90
33093;DHT22;19456;46.104;12.908;2024-01-07T10:22:20;11.00;99.90
33093;DHT22;19456;46.104;12.908;2024-01-07T10:24:46;11.10;99.90
33093;DHT22;19456;46.104;12.908;2024-01-07T10:27:13;11.10;99.90
33093;DHT22;19456;46.104;12.908;2024-01-07T10:29:39;11.10;99.90
33093;DHT22;19456;46.104;12.908;2024-01-07T10:32:04;11.10;99.90
33093;DHT22;19456;46.104;12.908;2024-01-07T10:34:31;11.20;99.90
33093;DHT22;19456;46.104;12.908;2024-01-07T10:36:58;11.20;99.90
33093;DHT22;19456;46.104;12.908;2024-01-07T10:39:24;11.30;99.90
33093;DHT22;19456;46.104;12.908;2024-01-07T10:41:50;11.40;99.90
33093;DHT22;19456;46.104;12.908;2024-01-07T10:44:17;11.40;99.90
33093;DHT22;19456;46.104;12.908;2024-01-07T10:46:44;11.40;99.90
33093;DHT22;19456;46.104;12.908;2024-01-07T10:49:20;11.40;99.90
33093;DHT22;19456;46.104;12.908;2024-01-07T10:51:47;11.40;99.90
33093;DHT22;19456;46.104;12.908;2024-01-07T10:54:16;11.40;99.90
33093;DHT22;19456;46.104;12.908;2024-01-07T10:56:45;11.50;99.90
33093;DHT22;19456;46.104;12.908;2024-01-07T10:59:11;11.50;99.90
33093;DHT22;19456;46.104;12.908;2024-01-07T11:01:36;11.50;99.90
33093;DHT22;19456;46.104;12.908;2024-01-07T11:04:17;11.50;99.90
33093;DHT22;19456;46.104;12.908;2024-01-07T11:06:54;11.50;99.90
33093;DHT22;19456;46.104;12.908;2024-01-07T11:09:37;11.50;99.90
33093;DHT22;19456;46.104;12.908;2024-01-07T11:12:04;11.40;99.90
33093;DHT22;19456;46.104;12.908;2024-01-07T11:14:40;11.40;99.90
33093;DHT22;19456;46.104;12.908;2024-01-07T11:17:10;11.40;99.90
33093;DHT22;19456;46.104;12.908;2024-01-07T11:19:36;11.40;99.90
33093;DHT22;19456;46.104;12.908;2024-01-07T11:22:23;11.40;99.90
33093;DHT22;19456;46.104;12.908;2024-01-07T11:24:51;11.40;99.90
33093;DHT22;19456;46.104;12.908;2024-01-07T11:27:16;11.40;99.90
33093;DHT22;19456;46.104;12.908;2024-01-07T11:29:42;11.40;99.90
33093;DHT22;19456;46.104;12.908;2024-01-07T11:32:09;11.30;99.90
33093;DHT22;19456;46.104;12.908;2024-01-07T11:34:41;11.30;99.90
33093;DHT22;19456;46.104;12.908;2024-01-07T11:37:12;11.40;99.90
33093;DHT22;19456;46.104;12.908;2024-01-07T11:39:45;11.40;99.90
33093;DHT22;19456;46.104;12.908;2024-01-07T11:42:10;11.40;99.90
33093;DHT22;19456;46.104;12.908;2024-01-07T11:44:46;11.40;99.90
33093;DHT22;19456;46.104;12.908;2024-01-07T11:47:12;11.40;99.90
33093;DHT22;19456;46.104;12.908;2024-01-07T11:49:39;11.40;99.90
33093;DHT22;19456;46.104;12.908;2024-01-07T11:52:04;11.40;99.90
33093;DHT22;19456;46.104;12.908;2024-01-07T11:54:31;11.40;99.90
33093;DHT22;19456;46.104;12.908;2024-01-07T11:56:56;11.50;99.90
33093;DHT22;19456;46.104;12.908;2024-01-07T11:59:23;11.50;99.90
33093;DHT22;19456;46.104;12.908;2024-01-07T12:01:48;11.50;99.90
33093;DHT22;19456;46.104;12.908;2024-01-07T12:04:14;11.50;99.90
33093;DHT22;19456;46.104;12.908;2024-01-07T12:06:39;11.50;99.90
33093;DHT22;19456;46.104;12.908;2024-01-07T12:09:05;11.50;99.90
33093;DHT22;19456;46.104;12.908;2024-01-07T12:11:33;11.50;99.90
33093;DHT22;19456;46.104;12.908;2024-01-07T12:13:59;11.50;99.90
33093;DHT22;19456;46.104;12.908;2024-01-07T12:16:25;11.50;99.90
33093;DHT22;19456;46.104;12.908;2024-01-07T12:18:51;11.50;99.90
33093;DHT22;19456;46.104;12.908;2024-01-07T12:21:19;11.60;99.90
33093;DHT22;19456;46.104;12.908;2024-01-07T12:23:53;11.60;99.90
33093;DHT22;19456;46.104;12.908;2024-01-07T12:26:25;11.60;99.90
33093;DHT22;19456;46.104;12.908;2024-01-07T12:28:55;11.60;99.90
33093;DHT22;19456;46.104;12.908;2024-01-07T12:31:32;11.50;99.90
33093;DHT22;19456;46.104;12.908;2024-01-07T12:33:58;11.60;99.90
33093;DHT22;19456;46.104;12.908;2024-01-07T12:36:24;11.60;99.90
33093;DHT22;19456;46.104;12.908;2024-01-07T12:38:50;11.70;99.90
33093;DHT22;19456;46.104;12.908;2024-01-07T12:41:17;11.70;99.90
33093;DHT22;19456;46.104;12.908;2024-01-07T12:43:42;11.70;99.90
33093;DHT22;19456;46.104;12.908;2024-01-07T12:46:08;11.80;99.90
33093;DHT22;19456;46.104;12.908;2024-01-07T12:48:34;11.80;99.90
33093;DHT22;19456;46.104;12.908;2024-01-07T12:51:00;11.80;99.90
33093;DHT22;19456;46.104;12.908;2024-01-07T12:53:25;11.90;99.90
33093;DHT22;19456;46.104;12.908;2024-01-07T12:55:52;11.90;99.90
33093;DHT22;19456;46.104;12.908;2024-01-07T12:58:17;12.00;99.90
33093;DHT22;19456;46.104;12.908;2024-01-07T13:00:43;12.10;99.90
33093;DHT22;19456;46.104;12.908;2024-01-07T13:03:09;12.10;99.90
33093;DHT22;19456;46.104;12.908;2024-01-07T13:05:39;12.10;99.90
33093;DHT22;19456;46.104;12.908;2024-01-07T13:08:06;12.10;99.90
33093;DHT22;19456;46.104;12.908;2024-01-07T13:10:32;12.10;99.90
33093;DHT22;19456;46.104;12.908;2024-01-07T13:12:57;12.20;99.90
33093;DHT22;19456;46.104;12.908;2024-01-07T13:15:23;12.20;99.90
33093;DHT22;19456;46.104;12.908;2024-01-07T13:17:48;12.30;99.90
33093;DHT22;19456;46.104;12.908;2024-01-07T13:20:14;12.30;99.90
33093;DHT22;19456;46.104;12.908;2024-01-07T13:22:40;12.40;99.90
33093;DHT22;19456;46.104;12.908;2024-01-07T13:25:06;12.40;99.90
33093;DHT22;19456;46.104;12.908;2024-01-07T13:27:34;12.30;99.90
33093;DHT22;19456;46.104;12.908;2024-01-07T13:30:00;12.40;99.90
33093;DHT22;19456;46.104;12.908;2024-01-07T13:32:25;12.40;99.90
33093;DHT22;19456;46.104;12.908;2024-01-07T13:34:51;12.40;99.90
33093;DHT22;19456;46.104;12.908;2024-01-07T13:37:17;12.30;99.90
33093;DHT22;19456;46.104;12.908;2024-01-07T13:39:42;12.30;99.90
33093;DHT22;19456;46.104;12.908;2024-01-07T13:42:08;12.30;99.90
33093;DHT22;19456;46.104;12.908;2024-01-07T13:44:35;12.30;99.90
33093;DHT22;19456;46.104;12.908;2024-01-07T13:47:04;12.30;99.90
33093;DHT22;19456;46.104;12.908;2024-01-07T13:49:30;12.30;99.90
33093;DHT22;19456;46.104;12.908;2024-01-07T13:51:58;12.30;99.90
33093;DHT22;19456;46.104;12.908;2024-01-07T13:54:24;12.30;99.90
33093;DHT22;19456;46.104;12.908;2024-01-07T13:56:49;12.30;99.90
33093;DHT22;19456;46.104;12.908;2024-01-07T13:59:16;12.30;99.90
33093;DHT22;19456;46.104;12.908;2024-01-07T14:01:42;12.30;99.90
33093;DHT22;19456;46.104;12.908;2024-01-07T14:04:08;12.20;99.90
33093;DHT22;19456;46.104;12.908;2024-01-07T14:06:37;12.20;99.90
33093;DHT22;19456;46.104;12.908;2024-01-07T14:09:02;12.20;99.90
33093;DHT22;19456;46.104;12.908;2024-01-07T14:11:28;12.20;99.90
33093;DHT22;19456;46.104;12.908;2024-01-07T14:13:54;12.20;99.90
33093;DHT22;19456;46.104;12.908;2024-01-07T14:16:19;12.30;99.90
33093;DHT22;19456;46.104;12.908;2024-01-07T14:18:45;12.30;99.90
33093;DHT22;19456;46.104;12.908;2024-01-07T14:21:10;12.30;99.90
33093;DHT22;19456;46.104;12.908;2024-01-07T14:23:36;12.40;99.90
33093;DHT22;19456;46.104;12.908;2024-01-07T14:26:02;12.40;99.90
33093;DHT22;19456;46.104;12.908;2024-01-07T14:28:28;12.40;99.90
33093;DHT22;19456;46.104;12.908;2024-01-07T14:30:54;12.40;99.90
33093;DHT22;19456;46.104;12.908;2024-01-07T14:33:19;12.30;99.90
33093;DHT22;19456;46.104;12.908;2024-01-07T14:35:45;12.30;99.90
33093;DHT22;19456;46.104;12.908;2024-01-07T14:38:10;12.20;99.90
33093;DHT22;19456;46.104;12.908;2024-01-07T14:40:36;12.20;99.90
33093;DHT22;19456;46.104;12.908;2024-01-07T14:43:02;12.20;99.90
33093;DHT22;19456;46.104;12.908;2024-01-07T14:45:27;12.10;99.90
33093;DHT22;19456;46.104;12.908;2024-01-07T14:47:53;12.10;99.90
33093;DHT22;19456;46.104;12.908;2024-01-07T14:50:18;12.10;99.90
33093;DHT22;19456;46.104;12.908;2024-01-07T14:52:44;12.10;99.90
33093;DHT22;19456;46.104;12.908;2024-01-07T14:55:10;12.00;99.90
33093;DHT22;19456;46.104;12.908;2024-01-07T14:57:36;12.00;99.90
33093;DHT22;19456;46.104;12.908;2024-01-07T15:00:02;12.00;99.90
33093;DHT22;19456;46.104;12.908;2024-01-07T15:02:28;11.90;99.90
33093;DHT22;19456;46.104;12.908;2024-01-07T15:04:54;11.90;99.90
33093;DHT22;19456;46.104;12.908;2024-01-07T15:07:20;11.80;99.90
33093;DHT22;19456;46.104;12.908;2024-01-07T15:09:45;11.80;99.90
33093;DHT22;19456;46.104;12.908;2024-01-07T15:12:11;11.80;99.90
33093;DHT22;19456;46.104;12.908;2024-01-07T15:14:36;11.80;99.90
33093;DHT22;19456;46.104;12.908;2024-01-07T15:17:02;11.80;99.90
33093;DHT22;19456;46.104;12.908;2024-01-07T15:19:28;11.80;99.90